createdAt,value
2019-04-05T00:01:44.066Z,100434.49
2019-04-05T00:04:16.317Z,100433.54
2019-04-05T00:06:48.324Z,100441.06
2019-04-05T00:09:20.314Z,100440.81
2019-04-05T00:11:52.447Z,100437.92
2019-04-05T00:14:24.403Z,100435.29
2019-04-05T00:16:56.373Z,100435.34
2019-04-05T00:19:28.334Z,100434.23
2019-04-05T00:22:00.275Z,100436.17
2019-04-05T00:24:32.288Z,100430.46
2019-04-05T00:27:04.316Z,100436.09
2019-04-05T00:29:36.345Z,100436.87
2019-04-05T00:32:08.312Z,100433.63
2019-04-05T00:34:40.561Z,100431.16
2019-04-05T00:37:12.827Z,100434.70
2019-04-05T00:39:44.944Z,100437.08
2019-04-05T00:42:17.214Z,100435.03
2019-04-05T00:44:49.627Z,100440.83
2019-04-05T00:51:41.420Z,100442.98
2019-04-05T00:54:13.480Z,100439.10
2019-04-05T00:56:45.499Z,100442.23
2019-04-05T00:59:17.472Z,100444.24
2019-04-05T01:01:49.897Z,100449.22
2019-04-05T01:04:21.909Z,100450.16
2019-04-05T01:06:53.963Z,100456.70
2019-04-05T01:09:26.203Z,100453.51
2019-04-05T01:11:58.188Z,100450.94
2019-04-05T01:14:31.059Z,100453.73
2019-04-05T01:17:03.474Z,100453.41
2019-04-05T01:19:37.955Z,100452.48
2019-04-05T01:22:13.766Z,100458.11
2019-04-05T01:24:46.364Z,100464.05
2019-04-05T01:27:19.285Z,100471.25
2019-04-05T01:29:51.238Z,100468.42
2019-04-05T01:32:23.228Z,100470.23
2019-04-05T01:34:55.444Z,100468.52
2019-04-05T01:37:27.925Z,100470.45
2019-04-05T01:40:00.486Z,100471.82
2019-04-05T01:42:32.423Z,100478.24
2019-04-05T01:45:06.957Z,100481.98
2019-04-05T01:47:38.988Z,100478.50
2019-04-05T01:50:11.651Z,100481.76
2019-04-05T01:52:44.255Z,100482.70
2019-04-05T01:55:16.294Z,100481.65
2019-04-05T01:57:48.253Z,100483.12
2019-04-05T02:00:21.248Z,100482.56
2019-04-05T02:02:53.186Z,100479.77
2019-04-05T02:05:25.339Z,100476.97
2019-04-05T02:07:57.596Z,100484.37
2019-04-05T02:10:30.200Z,100484.67
2019-04-05T02:13:02.376Z,100482.20
2019-04-05T02:15:37.001Z,100484.34
2019-04-05T02:18:09.003Z,100486.98
2019-04-05T02:20:41.059Z,100491.41
2019-04-05T02:23:13.076Z,100486.48
2019-04-05T02:25:45.063Z,100497.34
2019-04-05T02:28:17.120Z,100488.50
2019-04-05T02:30:49.115Z,100493.22
2019-04-05T02:33:21.130Z,100496.14
2019-04-05T02:35:53.081Z,100503.22
2019-04-05T02:38:25.128Z,100502.10
2019-04-05T02:40:59.767Z,100505.11
2019-04-05T02:43:35.761Z,100508.65
2019-04-05T02:46:22.826Z,100512.02
2019-04-05T02:48:46.064Z,100510.02
2019-04-05T02:51:23.184Z,100516.13
2019-04-05T02:53:58.459Z,100520.69
2019-04-05T02:56:31.855Z,100518.15
2019-04-05T02:59:05.404Z,100516.72
2019-04-05T03:01:37.705Z,100520.74
2019-04-05T03:04:10.176Z,100516.64
2019-04-05T03:06:42.468Z,100517.79
2019-04-05T03:09:14.931Z,100523.17
2019-04-05T03:11:47.692Z,100522.55
2019-04-05T03:14:21.030Z,100523.70
2019-04-05T03:16:55.884Z,100524.94
2019-04-05T03:19:31.887Z,100526.62
2019-04-05T03:22:08.140Z,100522.06
2019-04-05T03:24:44.174Z,100531.23
2019-04-05T03:27:21.078Z,100532.75
2019-04-05T03:29:54.148Z,100533.13
2019-04-05T03:32:26.935Z,100539.81
2019-04-05T03:34:59.392Z,100536.89
2019-04-05T03:37:31.784Z,100543.67
2019-04-05T03:40:06.032Z,100545.64
2019-04-05T03:42:38.541Z,100547.98
2019-04-05T03:45:10.968Z,100548.87
2019-04-05T03:47:43.329Z,100553.97
2019-04-05T03:50:15.596Z,100546.09
2019-04-05T03:52:47.692Z,100548.63
2019-04-05T03:55:19.663Z,100556.80
2019-04-05T03:57:51.674Z,100554.88
2019-04-05T04:00:23.693Z,100564.56
2019-04-05T04:02:55.781Z,100565.79
2019-04-05T04:05:27.988Z,100566.89
2019-04-05T04:08:00.164Z,100568.70
2019-04-05T04:10:32.280Z,100566.27
2019-04-05T04:13:04.977Z,100571.90
2019-04-05T04:15:37.067Z,100571.48
2019-04-05T04:18:09.484Z,100575.58
2019-04-05T04:20:48.924Z,100574.55
2019-04-05T04:23:25.430Z,100578.70
2019-04-05T04:25:57.993Z,100582.35
2019-04-05T04:28:31.326Z,100580.95
2019-04-05T04:31:04.059Z,100577.62
2019-04-05T04:33:36.791Z,100578.28
2019-04-05T04:36:08.606Z,100576.47
2019-04-05T04:38:41.002Z,100574.70
2019-04-05T04:41:13.458Z,100578.19
2019-04-05T04:43:46.135Z,100576.54
2019-04-05T04:46:18.807Z,100576.45
2019-04-05T04:48:50.773Z,100577.28
2019-04-05T04:51:23.331Z,100567.88
2019-04-05T04:53:55.693Z,100574.16
2019-04-05T04:56:28.034Z,100583.27
2019-04-05T04:59:00.358Z,100583.44
2019-04-05T05:01:32.334Z,100596.13
2019-04-05T05:04:04.631Z,100599.13
2019-04-05T05:06:36.920Z,100604.92
2019-04-05T05:09:09.083Z,100614.98
2019-04-05T05:11:45.406Z,100619.72
2019-04-05T05:14:18.033Z,100617.63
2019-04-05T05:16:50.285Z,100614.44
2019-04-05T05:19:22.471Z,100619.38
2019-04-05T05:21:54.692Z,100622.58
2019-04-05T05:24:27.803Z,100630.75
2019-04-05T05:26:59.794Z,100623.77
2019-04-05T05:29:32.075Z,100625.67
2019-04-05T05:32:04.679Z,100621.53
2019-04-05T05:34:36.985Z,100631.00
2019-04-05T05:37:09.158Z,100626.69
2019-04-05T05:39:41.349Z,100631.79
2019-04-05T05:42:13.587Z,100631.64
2019-04-05T05:44:45.527Z,100631.84
2019-04-05T05:47:17.487Z,100633.70
2019-04-05T05:49:49.473Z,100632.72
2019-04-05T05:52:21.787Z,100633.58
2019-04-05T05:54:53.743Z,100638.02
2019-04-05T05:57:25.830Z,100639.05
2019-04-05T06:00:00.219Z,100642.92
2019-04-05T06:02:31.613Z,100643.91
2019-04-05T06:05:03.733Z,100640.05
2019-04-05T06:07:36.271Z,100644.73
2019-04-05T06:10:09.137Z,100646.87
2019-04-05T06:12:41.123Z,100647.41
2019-04-05T06:15:13.542Z,100649.09
2019-04-05T06:17:45.509Z,100654.47
2019-04-05T06:20:18.425Z,100654.84
2019-04-05T06:22:50.406Z,100658.84
2019-04-05T06:25:22.380Z,100660.89
2019-04-05T06:27:54.667Z,100664.80
2019-04-05T06:30:28.767Z,100665.22
2019-04-05T06:33:00.564Z,100667.48
2019-04-05T06:35:32.583Z,100669.05
2019-04-05T06:38:04.680Z,100666.70
2019-04-05T06:40:41.194Z,100661.31
2019-04-05T06:43:11.095Z,100659.09
2019-04-05T06:45:43.329Z,100660.89
2019-04-05T06:48:19.448Z,100657.61
2019-04-05T06:50:49.560Z,100661.30
2019-04-05T06:53:21.884Z,100657.97
2019-04-05T06:55:53.895Z,100656.56
2019-04-05T06:58:29.092Z,100662.77
2019-04-05T07:01:00.648Z,100660.42
2019-04-05T07:03:32.828Z,100660.87
2019-04-05T07:06:04.772Z,100662.42
2019-04-05T07:08:36.749Z,100669.70
2019-04-05T07:11:08.705Z,100665.58
2019-04-05T07:13:40.660Z,100673.39
2019-04-05T07:16:12.635Z,100670.58
2019-04-05T07:18:44.587Z,100678.83
2019-04-05T07:21:17.462Z,100678.55
2019-04-05T07:23:49.490Z,100686.19
2019-04-05T07:26:21.594Z,100683.64
2019-04-05T07:28:53.851Z,100682.94
2019-04-05T07:31:25.800Z,100687.06
2019-04-05T07:33:58.026Z,100690.06
2019-04-05T07:36:29.972Z,100688.13
2019-04-05T07:39:02.211Z,100690.22
2019-04-05T07:41:34.224Z,100696.03
2019-04-05T07:44:06.280Z,100701.03
2019-04-05T07:46:38.217Z,100705.67
2019-04-05T07:49:10.229Z,100700.70
2019-04-05T07:51:42.174Z,100698.84
2019-04-05T07:54:14.131Z,100700.92
2019-04-05T07:56:46.637Z,100703.29
2019-04-05T07:59:20.899Z,100697.16
2019-04-05T08:01:52.580Z,100694.34
2019-04-05T08:04:24.529Z,100701.08
2019-04-05T08:07:01.359Z,100710.42
2019-04-05T08:09:35.562Z,100710.07
2019-04-05T08:12:08.154Z,100716.94
2019-04-05T08:14:40.974Z,100714.64
2019-04-05T08:17:12.968Z,100712.08
2019-04-05T08:19:45.092Z,100707.78
2019-04-05T08:22:17.307Z,100711.02
2019-04-05T08:24:49.445Z,100712.63
2019-04-05T08:27:21.447Z,100712.45
2019-04-05T08:29:53.986Z,100720.75
2019-04-05T08:32:25.966Z,100713.67
2019-04-05T08:34:57.930Z,100711.10
2019-04-05T08:37:29.951Z,100711.81
2019-04-05T08:40:01.911Z,100701.55
2019-04-05T08:42:34.119Z,100699.73
2019-04-05T08:45:08.991Z,100699.45
2019-04-05T08:47:40.945Z,100689.53
2019-04-05T08:50:13.227Z,100692.14
2019-04-05T08:52:45.428Z,100698.61
2019-04-05T08:55:17.405Z,100696.88
2019-04-05T08:57:49.934Z,100701.72
2019-04-05T09:00:22.622Z,100706.73
2019-04-05T09:02:54.668Z,100703.31
2019-04-05T09:05:26.687Z,100705.05
2019-04-05T09:07:58.644Z,100706.34
2019-04-05T09:10:30.586Z,100704.91
2019-04-05T09:13:02.608Z,100708.35
2019-04-05T09:15:34.565Z,100711.17
2019-04-05T09:18:07.498Z,100709.59
2019-04-05T09:20:39.453Z,100712.48
2019-04-05T09:23:11.422Z,100708.43
2019-04-05T09:25:43.378Z,100704.90
2019-04-05T09:28:15.373Z,100708.77
2019-04-05T09:30:47.319Z,100709.80
2019-04-05T09:33:19.380Z,100705.09
2019-04-05T09:35:51.407Z,100701.22
2019-04-05T09:38:23.815Z,100707.28
2019-04-05T09:40:55.795Z,100708.33
2019-04-05T09:43:28.013Z,100697.66
2019-04-05T09:46:00.061Z,100697.41
2019-04-05T09:48:32.806Z,100700.00
2019-04-05T09:51:07.104Z,100702.72
2019-04-05T09:53:39.090Z,100694.66
2019-04-05T09:56:11.223Z,100699.86
2019-04-05T09:58:43.165Z,100658.94
2019-04-05T10:01:15.401Z,100704.39
2019-04-05T10:03:47.422Z,100704.16
2019-04-05T10:06:19.453Z,100699.53
2019-04-05T10:08:51.409Z,100699.41
2019-04-05T10:11:23.535Z,100702.79
2019-04-05T10:13:55.489Z,100706.31
2019-04-05T10:16:27.496Z,100705.39
2019-04-05T10:18:59.749Z,100708.19
2019-04-05T10:21:31.734Z,100710.08
2019-04-05T10:24:04.015Z,100710.84
2019-04-05T10:26:35.969Z,100713.62
2019-04-05T10:29:07.992Z,100707.64
2019-04-05T10:31:39.967Z,100710.31
2019-04-05T10:34:11.919Z,100715.47
2019-04-05T10:36:43.895Z,100706.91
2019-04-05T10:39:15.849Z,100701.63
2019-04-05T10:41:47.812Z,100706.22
2019-04-05T10:44:19.780Z,100706.84
2019-04-05T10:46:51.811Z,100705.05
2019-04-05T10:49:23.850Z,100702.56
2019-04-05T10:51:55.896Z,100699.67
2019-04-05T10:54:27.844Z,100700.26
2019-04-05T10:56:59.796Z,100703.98
2019-04-05T10:59:31.827Z,100704.25
2019-04-05T11:02:03.866Z,100703.64
2019-04-05T11:04:35.822Z,100704.83
2019-04-05T11:07:07.778Z,100703.98
2019-04-05T11:09:39.750Z,100702.31
2019-04-05T11:12:12.362Z,100704.09
2019-04-05T11:14:45.046Z,100698.73
2019-04-05T11:17:16.994Z,100698.72
2019-04-05T11:19:49.052Z,100695.25
2019-04-05T11:22:21.200Z,100702.37
2019-04-05T11:24:53.216Z,100701.23
2019-04-05T11:27:25.228Z,100697.59
2019-04-05T11:29:57.908Z,100698.98
2019-04-05T11:32:30.816Z,100701.72
2019-04-05T11:35:02.843Z,100704.64
2019-04-05T11:37:35.397Z,100703.59
2019-04-05T11:40:10.354Z,100705.50
2019-04-05T11:42:43.755Z,100714.63
2019-04-05T11:45:16.072Z,100672.25
2019-04-05T11:47:49.008Z,100708.30
2019-04-05T11:50:33.557Z,100710.27
2019-04-05T11:52:54.938Z,100711.48
2019-04-05T11:55:27.177Z,100703.95
2019-04-05T11:58:01.967Z,100706.38
2019-04-05T12:00:38.527Z,100707.89
2019-04-05T12:03:18.488Z,100708.45
2019-04-05T12:05:50.709Z,100708.05
2019-04-05T12:08:24.110Z,100707.77
2019-04-05T12:10:56.086Z,100704.95
2019-04-05T12:13:28.103Z,100704.45
2019-04-05T12:16:00.357Z,100705.27
2019-04-05T12:18:34.783Z,100709.66
2019-04-05T12:21:07.007Z,100705.39
2019-04-05T12:23:39.604Z,100705.08
2019-04-05T12:26:15.863Z,100702.42
2019-04-05T12:28:48.419Z,100703.67
2019-04-05T12:31:21.057Z,100706.75
2019-04-05T12:33:53.035Z,100705.06
2019-04-05T12:36:25.281Z,100706.89
2019-04-05T12:38:57.227Z,100705.34
2019-04-05T12:41:29.200Z,100711.51
2019-04-05T12:44:01.174Z,100709.08
2019-04-05T12:46:33.132Z,100706.52
2019-04-05T12:49:05.086Z,100707.51
2019-04-05T12:51:37.045Z,100706.33
2019-04-05T12:54:09.259Z,100706.22
2019-04-05T12:56:41.332Z,100699.27
2019-04-05T12:59:13.292Z,100706.29
2019-04-05T13:01:45.660Z,100701.54
2019-04-05T13:04:20.752Z,100695.65
2019-04-05T13:06:53.005Z,100695.72
2019-04-05T13:09:26.036Z,100697.95
2019-04-05T13:11:58.800Z,100696.04
2019-04-05T13:14:30.794Z,100690.95
2019-04-05T13:17:02.874Z,100693.70
2019-04-05T13:19:35.069Z,100686.42
2019-04-05T13:22:07.106Z,100687.11
2019-04-05T13:24:40.260Z,100693.63
2019-04-05T13:27:12.841Z,100692.98
2019-04-05T13:29:45.122Z,100693.41
2019-04-05T13:32:19.358Z,100689.80
2019-04-05T13:34:51.135Z,100691.58
2019-04-05T13:37:23.405Z,100701.71
2019-04-05T13:39:55.346Z,100702.21
2019-04-05T13:42:31.106Z,100701.46
2019-04-05T13:45:01.329Z,100699.53
2019-04-05T13:47:33.278Z,100701.47
2019-04-05T13:50:11.027Z,100700.00
2019-04-05T13:52:42.120Z,100697.73
2019-04-05T13:55:14.524Z,100699.04
2019-04-05T13:57:46.549Z,100699.30
2019-04-05T14:00:19.256Z,100702.97
2019-04-05T14:02:51.453Z,100696.14
2019-04-05T14:05:23.427Z,100697.02
2019-04-05T14:08:09.112Z,100699.27
2019-04-05T14:10:29.022Z,100700.15
2019-04-05T14:13:01.130Z,100696.89
2019-04-05T14:15:33.151Z,100702.05
2019-04-05T14:18:05.107Z,100709.22
2019-04-05T14:20:37.055Z,100701.27
2019-04-05T14:23:10.154Z,100667.19
2019-04-05T14:25:42.093Z,100705.08
2019-04-05T14:28:14.326Z,100701.11
2019-04-05T14:30:46.629Z,100705.91
2019-04-05T14:33:18.846Z,100702.08
2019-04-05T14:35:52.528Z,100703.58
2019-04-05T14:38:24.572Z,100703.77
2019-04-05T14:40:56.545Z,100699.59
2019-04-05T14:43:28.495Z,100701.02
2019-04-05T14:46:02.774Z,100701.52
2019-04-05T14:48:34.114Z,100697.56
2019-04-05T14:51:06.160Z,100703.11
2019-04-05T14:53:38.425Z,100696.19
2019-04-05T14:56:10.395Z,100702.37
2019-04-05T14:58:42.343Z,100699.31
2019-04-05T15:01:15.509Z,100695.91
2019-04-05T15:03:48.207Z,100701.41
2019-04-05T15:06:20.646Z,100697.72
2019-04-05T15:08:52.741Z,100700.90
2019-04-05T15:11:28.727Z,100702.25
2019-04-05T15:13:58.431Z,100704.66
2019-04-05T15:16:30.477Z,100707.78
2019-04-05T15:19:02.428Z,100703.27
2019-04-05T15:21:34.834Z,100706.23
2019-04-05T15:24:08.896Z,100704.30
2019-04-05T15:26:40.959Z,100706.17
2019-04-05T15:29:13.317Z,100702.52
2019-04-05T15:31:45.303Z,100712.19
2019-04-05T15:34:17.355Z,100713.42
2019-04-05T15:36:49.311Z,100714.59
2019-04-05T15:39:21.277Z,100712.27
2019-04-05T15:41:53.247Z,100713.16
2019-04-05T15:44:25.485Z,100711.87
2019-04-05T15:46:57.706Z,100708.66
2019-04-05T15:49:29.679Z,100710.62
2019-04-05T15:52:01.646Z,100714.18
2019-04-05T15:54:34.668Z,100715.69
2019-04-05T15:57:06.666Z,100718.33
2019-04-05T15:59:38.629Z,100717.66
2019-04-05T16:02:10.593Z,100717.28
2019-04-05T16:04:42.573Z,100721.19
2019-04-05T16:07:14.828Z,100717.97
2019-04-05T16:09:46.773Z,100729.61
2019-04-05T16:12:21.681Z,100728.19
2019-04-05T16:14:53.710Z,100734.61
2019-04-05T16:17:25.732Z,100737.70
2019-04-05T16:19:58.108Z,100736.81
2019-04-05T16:22:31.457Z,100735.30
2019-04-05T16:25:04.357Z,100734.57
2019-04-05T16:27:36.345Z,100738.63
2019-04-05T16:30:09.490Z,100740.34
2019-04-05T16:32:41.507Z,100745.59
2019-04-05T16:35:14.782Z,100747.45
2019-04-05T16:37:46.905Z,100751.19
2019-04-05T16:40:19.442Z,100754.00
2019-04-05T16:43:01.853Z,100750.80
2019-04-05T16:45:25.293Z,100757.56
2019-04-05T16:47:57.514Z,100758.59
2019-04-05T16:50:29.494Z,100760.16
2019-04-05T16:53:01.427Z,100760.17
2019-04-05T16:55:33.969Z,100762.17
2019-04-05T16:58:05.928Z,100767.34
2019-04-05T17:00:37.885Z,100771.53
2019-04-05T17:03:09.869Z,100773.45
2019-04-05T17:05:42.089Z,100771.09
2019-04-05T17:08:14.305Z,100775.23
2019-04-05T17:10:46.355Z,100770.92
2019-04-05T17:13:18.324Z,100780.72
2019-04-05T17:15:50.309Z,100783.52
2019-04-05T17:18:22.275Z,100783.38
2019-04-05T17:20:54.251Z,100784.14
2019-04-05T17:23:26.225Z,100785.71
2019-04-05T17:25:58.179Z,100786.29
2019-04-05T17:28:30.136Z,100793.59
2019-04-05T17:31:02.120Z,100792.58
2019-04-05T17:33:34.330Z,100793.48
2019-04-05T17:36:06.297Z,100803.06
2019-04-05T17:38:41.239Z,100818.30
2019-04-05T17:41:13.203Z,100823.43
2019-04-05T17:43:46.138Z,100831.55
2019-04-05T17:46:18.115Z,100836.28
2019-04-05T17:48:52.004Z,100837.86
2019-04-05T17:51:24.052Z,100842.98
2019-04-05T17:53:56.076Z,100845.69
2019-04-05T17:56:28.387Z,100852.81
2019-04-05T17:59:01.292Z,100852.86
2019-04-05T18:01:33.399Z,100860.73
2019-04-05T18:04:05.349Z,100872.81
2019-04-05T18:06:37.307Z,100873.60
2019-04-05T18:09:09.992Z,100874.12
2019-04-05T18:11:42.196Z,100881.62
2019-04-05T18:14:14.347Z,100880.87
2019-04-05T18:16:46.309Z,100883.34
2019-04-05T18:19:18.301Z,100887.94
2019-04-05T18:21:50.337Z,100888.78
2019-04-05T18:24:22.467Z,100892.08
2019-04-05T18:26:54.450Z,100897.41
2019-04-05T18:29:26.485Z,100900.62
2019-04-05T18:31:58.460Z,100901.94
2019-04-05T18:34:30.424Z,100904.14
2019-04-05T18:37:02.431Z,100907.50
2019-04-05T18:39:34.895Z,100906.41
2019-04-05T18:42:06.934Z,100910.30
2019-04-05T18:44:38.903Z,100912.56
2019-04-05T18:47:11.162Z,100910.95
2019-04-05T18:49:43.113Z,100918.23
2019-04-05T18:52:15.072Z,100920.41
2019-04-05T18:54:47.208Z,100926.11
2019-04-05T18:57:19.458Z,100922.92
2019-04-05T18:59:52.405Z,100930.45
2019-04-05T19:02:24.369Z,100929.47
2019-04-05T19:04:56.347Z,100932.01
2019-04-05T19:07:28.380Z,100931.00
2019-04-05T19:10:00.347Z,100942.55
2019-04-05T19:12:33.291Z,100939.31
2019-04-05T19:15:08.954Z,100939.44
2019-04-05T19:17:40.938Z,100945.87
2019-04-05T19:20:13.137Z,100947.12
2019-04-05T19:22:45.096Z,100949.30
2019-04-05T19:25:17.129Z,100949.09
2019-04-05T19:27:49.682Z,100948.41
2019-04-05T19:48:35.078Z,100957.91
2019-04-05T19:50:51.561Z,100961.85
2019-04-05T19:53:23.534Z,100964.04
2019-04-05T19:55:55.748Z,100968.28
2019-04-05T19:58:27.726Z,100976.27
2019-04-05T20:00:59.760Z,100976.77
2019-04-05T20:03:31.823Z,100978.06
2019-04-05T20:06:04.024Z,100980.22
2019-04-05T20:08:36.260Z,100977.59
2019-04-05T20:11:08.456Z,100978.66
2019-04-05T20:13:40.471Z,100982.05
2019-04-05T20:16:12.446Z,100961.42
2019-04-05T20:18:44.476Z,100986.59
2019-04-05T20:21:16.713Z,100992.49
2019-04-05T20:23:49.294Z,100999.84
2019-04-05T20:26:21.279Z,101001.12
2019-04-05T20:28:53.327Z,100996.37
2019-04-05T20:31:25.274Z,100995.96
2019-04-05T20:33:57.318Z,100998.48
2019-04-05T20:36:29.274Z,100999.56
2019-04-05T20:39:01.576Z,101001.05
2019-04-05T20:41:34.675Z,101004.19
2019-04-05T20:44:06.646Z,101010.91
2019-04-05T20:46:38.752Z,100997.72
2019-04-05T20:49:11.983Z,100997.16
2019-04-05T20:51:44.291Z,101001.48
2019-04-05T20:54:24.262Z,101001.44
2019-04-05T20:56:50.066Z,101011.02
2019-04-05T20:59:22.048Z,101011.75
2019-04-05T21:01:54.304Z,101006.35
2019-04-05T21:04:26.263Z,101007.47
2019-04-05T21:06:58.325Z,101010.02
2019-04-05T21:09:30.428Z,101012.95
2019-04-05T21:12:02.420Z,101005.20
2019-04-05T21:14:34.439Z,101000.54
2019-04-05T21:17:07.028Z,101001.73
2019-04-05T21:19:38.989Z,100998.85
2019-04-05T21:22:11.017Z,101004.13
2019-04-05T21:24:42.994Z,101004.36
2019-04-05T21:27:14.963Z,101004.41
2019-04-05T21:29:46.931Z,101013.36
2019-04-05T21:32:18.906Z,101016.28
2019-04-05T21:34:51.016Z,101015.70
2019-04-05T21:37:22.955Z,101016.78
2019-04-05T21:39:54.969Z,101026.05
2019-04-05T21:42:26.978Z,101012.69
2019-04-05T21:44:58.934Z,101015.73
2019-04-05T21:47:31.001Z,101013.21
2019-04-05T21:50:03.262Z,101012.22
2019-04-05T21:52:35.308Z,101014.27
2019-04-05T21:55:10.376Z,101017.52
2019-04-05T21:57:42.400Z,101021.50
2019-04-05T22:00:28.118Z,101017.00
2019-04-05T22:03:00.208Z,101018.72
2019-04-05T22:05:32.234Z,101027.55
2019-04-05T22:08:04.451Z,101027.52
2019-04-05T22:10:36.408Z,101034.13
2019-04-05T22:13:10.065Z,101037.23
2019-04-05T22:15:42.063Z,101040.44
2019-04-05T22:18:14.260Z,101042.89
2019-04-05T22:20:46.237Z,101049.30
2019-04-05T22:23:18.246Z,101049.49
2019-04-05T22:25:50.321Z,101055.58
2019-04-05T22:28:22.243Z,101058.95
2019-04-05T22:30:54.467Z,101067.09
2019-04-05T22:33:26.473Z,101074.11
2019-04-05T22:35:58.430Z,101065.45
2019-04-05T22:38:30.445Z,101070.92
2019-04-05T22:41:02.769Z,101065.36
2019-04-05T22:43:34.771Z,101066.50
2019-04-05T22:46:06.859Z,101065.59
2019-04-05T22:48:38.811Z,101067.05
2019-04-05T22:51:11.096Z,101067.56
2019-04-05T22:53:43.296Z,101073.16
2019-04-05T22:56:15.394Z,101067.33
2019-04-05T22:58:47.608Z,101071.15
2019-04-05T23:01:19.570Z,101068.64
2019-04-05T23:03:51.650Z,101065.02
2019-04-05T23:06:23.998Z,101067.24
2019-04-05T23:08:55.992Z,101067.73
2019-04-05T23:11:28.037Z,101065.42
2019-04-05T23:14:00.027Z,101064.59
2019-04-05T23:16:32.035Z,101061.18
2019-04-05T23:19:04.052Z,101057.94
2019-04-05T23:21:35.983Z,101052.50
2019-04-05T23:24:07.994Z,101054.80
2019-04-05T23:26:40.200Z,101059.77
2019-04-05T23:29:12.226Z,101059.00
2019-04-05T23:31:44.162Z,101061.43
2019-04-05T23:34:16.453Z,101062.16
2019-04-05T23:36:48.457Z,101064.22
2019-04-05T23:39:20.454Z,101065.16
2019-04-05T23:41:52.383Z,101067.30
2019-04-05T23:44:24.689Z,101063.80
2019-04-05T23:46:56.702Z,101059.52
2019-04-05T23:49:28.651Z,101063.84
2019-04-05T23:52:00.669Z,101065.81
2019-04-05T23:54:32.652Z,101065.45
2019-04-05T23:57:04.664Z,101057.93
2019-04-05T23:59:36.656Z,101060.44
